sensor_id;sensor_type;location;lat;lon;timestamp;pressure;altitude;pressure_sealevel;temperature;humidity
6096;BME280;25081;42.698;23.298;2023-01-31T00:01:33;94829.27;;;-0.28;74.09
6096;BME280;25081;42.698;23.298;2023-01-31T00:03:42;94841.37;;;-0.23;73.38
6096;BME280;25081;42.698;23.298;2023-01-31T00:05:53;94837.59;;;-0.20;72.33
6096;BME280;25081;42.698;23.298;2023-01-31T00:08:04;94841.05;;;-0.16;72.42
6096;BME280;25081;42.698;23.298;2023-01-31T00:10:14;94840.38;;;-0.10;72.23
6096;BME280;25081;42.698;23.298;2023-01-31T00:12:25;94835.01;;;-0.08;72.05
6096;BME280;25081;42.698;23.298;2023-01-31T00:14:36;94835.48;;;-0.05;72.36
6096;BME280;25081;42.698;23.298;2023-01-31T00:16:46;94835.97;;;-0.13;71.29
6096;BME280;25081;42.698;23.298;2023-01-31T00:18:57;94829.26;;;-0.24;71.35
6096;BME280;25081;42.698;23.298;2023-01-31T00:21:09;94835.31;;;-0.23;71.82
6096;BME280;25081;42.698;23.298;2023-01-31T00:23:20;94836.77;;;-0.29;71.99
6096;BME280;25081;42.698;23.298;2023-01-31T00:25:30;94839.08;;;-0.22;71.71
6096;BME280;25081;42.698;23.298;2023-01-31T00:27:41;94836.30;;;-0.24;71.97
6096;BME280;25081;42.698;23.298;2023-01-31T00:29:52;94836.30;;;-0.24;72.06
6096;BME280;25081;42.698;23.298;2023-01-31T00:32:03;94828.61;;;-0.26;72.76
6096;BME280;25081;42.698;23.298;2023-01-31T00:34:14;94827.59;;;-0.57;72.97
6096;BME280;25081;42.698;23.298;2023-01-31T00:36:25;94833.48;;;-0.51;73.47
6096;BME280;25081;42.698;23.298;2023-01-31T00:38:35;94829.42;;;-0.38;73.61
6096;BME280;25081;42.698;23.298;2023-01-31T00:40:52;94830.73;;;-0.38;73.42
6096;BME280;25081;42.698;23.298;2023-01-31T00:43:03;94830.24;;;-0.37;73.30
6096;BME280;25081;42.698;23.298;2023-01-31T00:45:13;94837.77;;;-0.34;73.41
6096;BME280;25081;42.698;23.298;2023-01-31T00:47:24;94833.48;;;-0.39;73.75
6096;BME280;25081;42.698;23.298;2023-01-31T00:49:35;94834.31;;;-0.43;74.38
6096;BME280;25081;42.698;23.298;2023-01-31T00:51:45;94840.69;;;-0.41;74.05
6096;BME280;25081;42.698;23.298;2023-01-31T00:53:56;94825.80;;;-0.45;73.97
6096;BME280;25081;42.698;23.298;2023-01-31T00:56:09;94819.92;;;-0.47;74.33
6096;BME280;25081;42.698;23.298;2023-01-31T00:58:19;94821.88;;;-0.41;74.59
6096;BME280;25081;42.698;23.298;2023-01-31T01:00:29;94824.17;;;-0.34;74.78
6096;BME280;25081;42.698;23.298;2023-01-31T01:02:40;94814.68;;;-0.31;74.19
6096;BME280;25081;42.698;23.298;2023-01-31T01:04:50;94831.55;;;-0.25;74.35
6096;BME280;25081;42.698;23.298;2023-01-31T01:07:01;94838.73;;;-0.31;74.42
6096;BME280;25081;42.698;23.298;2023-01-31T01:09:12;94847.41;;;-0.31;73.98
6096;BME280;25081;42.698;23.298;2023-01-31T01:11:23;94843.65;;;-0.32;74.05
6096;BME280;25081;42.698;23.298;2023-01-31T01:13:33;94837.59;;;-0.45;73.90
6096;BME280;25081;42.698;23.298;2023-01-31T01:15:44;94857.37;;;-0.50;74.37
6096;BME280;25081;42.698;23.298;2023-01-31T01:17:54;94842.80;;;-0.53;74.48
6096;BME280;25081;42.698;23.298;2023-01-31T01:20:07;94852.17;;;-0.38;74.42
6096;BME280;25081;42.698;23.298;2023-01-31T01:22:18;94837.28;;;-0.38;74.14
6096;BME280;25081;42.698;23.298;2023-01-31T01:24:28;94837.27;;;-0.46;74.60
6096;BME280;25081;42.698;23.298;2023-01-31T01:26:39;94833.64;;;-0.53;74.40
6096;BME280;25081;42.698;23.298;2023-01-31T01:28:50;94832.02;;;-0.42;74.15
6096;BME280;25081;42.698;23.298;2023-01-31T01:31:04;94823.36;;;-0.46;74.04
6096;BME280;25081;42.698;23.298;2023-01-31T01:33:14;94825.31;;;-0.44;73.67
6096;BME280;25081;42.698;23.298;2023-01-31T01:35:25;94825.98;;;-0.38;73.42
6096;BME280;25081;42.698;23.298;2023-01-31T01:37:36;94827.29;;;-0.22;72.49
6096;BME280;25081;42.698;23.298;2023-01-31T01:39:46;94824.37;;;-0.19;72.45
6096;BME280;25081;42.698;23.298;2023-01-31T01:41:57;94827.78;;;-0.10;71.87
6096;BME280;25081;42.698;23.298;2023-01-31T01:44:46;94814.52;;;-0.13;71.17
6096;BME280;25081;42.698;23.298;2023-01-31T01:46:56;94821.23;;;-0.10;71.57
6096;BME280;25081;42.698;23.298;2023-01-31T01:49:11;94823.20;;;-0.04;71.41
6096;BME280;25081;42.698;23.298;2023-01-31T01:51:20;94824.66;;;-0.10;71.21
6096;BME280;25081;42.698;23.298;2023-01-31T01:53:31;94824.66;;;-0.10;71.10
6096;BME280;25081;42.698;23.298;2023-01-31T01:55:43;94827.95;;;-0.16;70.42
6096;BME280;25081;42.698;23.298;2023-01-31T01:57:55;94822.22;;;-0.11;69.90
6096;BME280;25081;42.698;23.298;2023-01-31T02:00:07;94826.48;;;-0.14;69.98
6096;BME280;25081;42.698;23.298;2023-01-31T02:02:16;94831.89;;;-0.16;68.89
6096;BME280;25081;42.698;23.298;2023-01-31T02:04:28;94815.98;;;-0.10;68.36
6096;BME280;25081;42.698;23.298;2023-01-31T02:06:38;94819.77;;;-0.05;67.92
6096;BME280;25081;42.698;23.298;2023-01-31T02:08:48;94819.75;;;-0.01;67.21
6096;BME280;25081;42.698;23.298;2023-01-31T02:11:00;94821.89;;;0.04;67.11
6096;BME280;25081;42.698;23.298;2023-01-31T02:13:10;94839.25;;;0.05;66.09
6096;BME280;25081;42.698;23.298;2023-01-31T02:15:20;94825.81;;;0.16;64.91
6096;BME280;25081;42.698;23.298;2023-01-31T02:17:31;94827.45;;;0.21;64.47
6096;BME280;25081;42.698;23.298;2023-01-31T02:19:44;94826.81;;;0.19;64.46
6096;BME280;25081;42.698;23.298;2023-01-31T02:22:03;94820.41;;;0.22;64.55
6096;BME280;25081;42.698;23.298;2023-01-31T02:24:42;94834.16;;;0.08;64.54
6096;BME280;25081;42.698;23.298;2023-01-31T02:27:01;94832.70;;;0.13;64.71
6096;BME280;25081;42.698;23.298;2023-01-31T02:32:14;94824.50;;;0.16;64.19
6096;BME280;25081;42.698;23.298;2023-01-31T02:34:24;94837.62;;;0.12;64.34
6096;BME280;25081;42.698;23.298;2023-01-31T02:36:37;94837.77;;;0.15;64.17
6096;BME280;25081;42.698;23.298;2023-01-31T02:38:52;94832.87;;;0.20;64.01
6096;BME280;25081;42.698;23.298;2023-01-31T02:41:03;94827.11;;;0.24;63.92
6096;BME280;25081;42.698;23.298;2023-01-31T02:43:15;94831.70;;;0.22;63.25
6096;BME280;25081;42.698;23.298;2023-01-31T02:45:27;94830.55;;;0.25;63.71
6096;BME280;25081;42.698;23.298;2023-01-31T02:47:46;94831.03;;;0.28;63.95
6096;BME280;25081;42.698;23.298;2023-01-31T02:49:56;94833.33;;;0.27;63.86
6096;BME280;25081;42.698;23.298;2023-01-31T02:52:12;94842.17;;;0.26;63.65
6096;BME280;25081;42.698;23.298;2023-01-31T02:54:26;94855.78;;;0.18;63.91
6096;BME280;25081;42.698;23.298;2023-01-31T02:56:37;94858.27;;;0.19;64.45
6096;BME280;25081;42.698;23.298;2023-01-31T02:58:51;94865.63;;;0.20;64.23
6096;BME280;25081;42.698;23.298;2023-01-31T03:01:00;94866.13;;;0.19;64.64
6096;BME280;25081;42.698;23.298;2023-01-31T03:03:16;94870.70;;;0.21;64.51
6096;BME280;25081;42.698;23.298;2023-01-31T03:05:25;94874.30;;;0.24;64.91
6096;BME280;25081;42.698;23.298;2023-01-31T03:07:35;94879.53;;;0.16;65.02
6096;BME280;25081;42.698;23.298;2023-01-31T03:09:50;94878.72;;;0.16;65.07
6096;BME280;25081;42.698;23.298;2023-01-31T03:12:03;94891.17;;;0.14;65.51
6096;BME280;25081;42.698;23.298;2023-01-31T03:14:14;94890.69;;;0.10;65.79
6096;BME280;25081;42.698;23.298;2023-01-31T03:16:26;94900.17;;;0.07;66.18
6096;BME280;25081;42.698;23.298;2023-01-31T03:19:14;94899.85;;;0.02;66.45
6096;BME280;25081;42.698;23.298;2023-01-31T03:21:26;94909.33;;;-0.01;67.00
6096;BME280;25081;42.698;23.298;2023-01-31T03:23:36;94912.77;;;-0.01;67.22
6096;BME280;25081;42.698;23.298;2023-01-31T03:25:46;94912.63;;;0.01;67.33
6096;BME280;25081;42.698;23.298;2023-01-31T03:27:57;94909.66;;;-0.04;67.46
6096;BME280;25081;42.698;23.298;2023-01-31T03:30:11;94919.34;;;0.04;67.56
6096;BME280;25081;42.698;23.298;2023-01-31T03:32:21;94922.44;;;0.07;67.64
6096;BME280;25081;42.698;23.298;2023-01-31T03:34:31;94926.56;;;0.10;67.58
6096;BME280;25081;42.698;23.298;2023-01-31T03:36:43;94925.41;;;0.12;67.76
6096;BME280;25081;42.698;23.298;2023-01-31T03:38:53;94925.71;;;0.09;68.06
6096;BME280;25081;42.698;23.298;2023-01-31T03:41:05;94926.36;;;-0.01;68.25
6096;BME280;25081;42.698;23.298;2023-01-31T03:43:17;94931.78;;;0.06;68.50
6096;BME280;25081;42.698;23.298;2023-01-31T03:45:27;94947.66;;;0.08;68.71
6096;BME280;25081;42.698;23.298;2023-01-31T03:47:37;94947.66;;;0.08;69.01
6096;BME280;25081;42.698;23.298;2023-01-31T03:49:48;94951.43;;;0.06;69.45
6096;BME280;25081;42.698;23.298;2023-01-31T03:51:59;94947.02;;;0.02;69.79
6096;BME280;25081;42.698;23.298;2023-01-31T03:54:10;94943.72;;;-0.04;70.41
6096;BME280;25081;42.698;23.298;2023-01-31T03:56:20;94946.66;;;-0.03;70.47
6096;BME280;25081;42.698;23.298;2023-01-31T03:58:31;94951.27;;;0.07;70.68
6096;BME280;25081;42.698;23.298;2023-01-31T04:00:41;94950.30;;;0.12;70.87
6096;BME280;25081;42.698;23.298;2023-01-31T04:02:53;94952.58;;;0.07;70.73
6096;BME280;25081;42.698;23.298;2023-01-31T04:05:06;94955.05;;;0.01;71.24
6096;BME280;25081;42.698;23.298;2023-01-31T04:07:16;94948.98;;;0.04;71.55
6096;BME280;25081;42.698;23.298;2023-01-31T04:09:27;94949.47;;;0.04;71.68
6096;BME280;25081;42.698;23.298;2023-01-31T04:11:38;94950.77;;;-0.09;72.44
6096;BME280;25081;42.698;23.298;2023-01-31T04:13:48;94956.83;;;-0.08;73.02
6096;BME280;25081;42.698;23.298;2023-01-31T04:15:59;94960.09;;;-0.06;73.27
6096;BME280;25081;42.698;23.298;2023-01-31T04:18:10;94958.45;;;-0.03;73.41
6096;BME280;25081;42.698;23.298;2023-01-31T04:20:20;94960.59;;;-0.07;73.82
6096;BME280;25081;42.698;23.298;2023-01-31T04:22:31;94961.90;;;-0.07;74.23
6096;BME280;25081;42.698;23.298;2023-01-31T04:24:42;94959.56;;;-0.22;75.14
6096;BME280;25081;42.698;23.298;2023-01-31T04:26:52;94955.79;;;-0.19;75.54
6096;BME280;25081;42.698;23.298;2023-01-31T04:29:03;94959.23;;;-0.27;76.31
6096;BME280;25081;42.698;23.298;2023-01-31T04:31:13;94962.97;;;-0.30;76.65
6096;BME280;25081;42.698;23.298;2023-01-31T04:33:24;94962.80;;;-0.32;77.07
6096;BME280;25081;42.698;23.298;2023-01-31T04:35:34;94954.95;;;-0.36;77.38
6096;BME280;25081;42.698;23.298;2023-01-31T04:37:45;94966.73;;;-0.36;77.76
6096;BME280;25081;42.698;23.298;2023-01-31T04:39:55;94963.59;;;-0.40;77.78
6096;BME280;25081;42.698;23.298;2023-01-31T04:42:05;94972.42;;;-0.41;78.04
6096;BME280;25081;42.698;23.298;2023-01-31T04:44:16;94965.36;;;-0.52;78.51
6096;BME280;25081;42.698;23.298;2023-01-31T04:46:26;94972.88;;;-0.53;78.94
6096;BME280;25081;42.698;23.298;2023-01-31T04:48:37;94975.13;;;-0.59;79.37
6096;BME280;25081;42.698;23.298;2023-01-31T04:50:48;94971.04;;;-0.61;79.67
6096;BME280;25081;42.698;23.298;2023-01-31T04:52:58;94990.84;;;-0.63;80.12
6096;BME280;25081;42.698;23.298;2023-01-31T04:55:10;94986.73;;;-0.65;80.12
6096;BME280;25081;42.698;23.298;2023-01-31T04:57:20;94989.05;;;-0.58;80.30
6096;BME280;25081;42.698;23.298;2023-01-31T04:59:31;94979.75;;;-0.56;80.34
6096;BME280;25081;42.698;23.298;2023-01-31T05:01:41;94982.66;;;-0.60;80.73
6096;BME280;25081;42.698;23.298;2023-01-31T05:03:52;94985.23;;;-0.68;81.00
6096;BME280;25081;42.698;23.298;2023-01-31T05:06:02;94989.20;;;-0.64;81.32
6096;BME280;25081;42.698;23.298;2023-01-31T05:08:13;94996.08;;;-0.59;81.21
6096;BME280;25081;42.698;23.298;2023-01-31T05:10:23;94984.66;;;-0.53;81.23
6096;BME280;25081;42.698;23.298;2023-01-31T05:12:34;94988.79;;;-0.47;80.96
6096;BME280;25081;42.698;23.298;2023-01-31T05:14:44;94992.06;;;-0.41;80.52
6096;BME280;25081;42.698;23.298;2023-01-31T05:16:55;94996.16;;;-0.42;80.86
6096;BME280;25081;42.698;23.298;2023-01-31T05:19:05;95000.45;;;-0.37;80.59
6096;BME280;25081;42.698;23.298;2023-01-31T05:21:16;94989.97;;;-0.33;80.31
6096;BME280;25081;42.698;23.298;2023-01-31T05:23:26;94988.98;;;-0.32;80.04
6096;BME280;25081;42.698;23.298;2023-01-31T05:25:37;94987.03;;;-0.38;80.00
6096;BME280;25081;42.698;23.298;2023-01-31T05:27:47;94991.61;;;-0.36;80.08
6096;BME280;25081;42.698;23.298;2023-01-31T05:29:57;94992.10;;;-0.33;80.02
6096;BME280;25081;42.698;23.298;2023-01-31T05:32:08;94990.46;;;-0.38;79.99
6096;BME280;25081;42.698;23.298;2023-01-31T05:34:19;94993.21;;;-0.39;80.16
6096;BME280;25081;42.698;23.298;2023-01-31T05:36:29;94990.79;;;-0.37;80.28
6096;BME280;25081;42.698;23.298;2023-01-31T05:38:39;94990.62;;;-0.31;80.07
6096;BME280;25081;42.698;23.298;2023-01-31T05:40:51;95000.61;;;-0.31;80.15
6096;BME280;25081;42.698;23.298;2023-01-31T05:43:01;94996.20;;;-0.30;80.18
6096;BME280;25081;42.698;23.298;2023-01-31T05:45:13;94997.38;;;-0.24;79.93
6096;BME280;25081;42.698;23.298;2023-01-31T05:47:24;95001.17;;;-0.19;79.47
6096;BME280;25081;42.698;23.298;2023-01-31T05:49:34;95007.69;;;-0.23;79.52
6096;BME280;25081;42.698;23.298;2023-01-31T05:51:45;95010.83;;;-0.15;79.46
6096;BME280;25081;42.698;23.298;2023-01-31T05:53:55;95010.17;;;-0.17;79.21
6096;BME280;25081;42.698;23.298;2023-01-31T05:56:07;95014.10;;;-0.17;79.26
6096;BME280;25081;42.698;23.298;2023-01-31T05:58:17;95024.42;;;-0.12;79.14
6096;BME280;25081;42.698;23.298;2023-01-31T06:00:28;95014.46;;;-0.08;78.94
6096;BME280;25081;42.698;23.298;2023-01-31T06:02:39;95019.05;;;-0.06;78.91
6096;BME280;25081;42.698;23.298;2023-01-31T06:04:49;95025.78;;;0.05;78.66
6096;BME280;25081;42.698;23.298;2023-01-31T06:07:00;95022.19;;;0.02;78.71
6096;BME280;25081;42.698;23.298;2023-01-31T06:09:10;95019.09;;;0.10;78.54
6096;BME280;25081;42.698;23.298;2023-01-31T06:11:21;95023.16;;;0.09;78.73
6096;BME280;25081;42.698;23.298;2023-01-31T06:13:34;95029.41;;;0.16;78.69
6096;BME280;25081;42.698;23.298;2023-01-31T06:15:44;95026.80;;;0.16;78.71
6096;BME280;25081;42.698;23.298;2023-01-31T06:17:55;95014.51;;;0.16;78.51
6096;BME280;25081;42.698;23.298;2023-01-31T06:20:07;95016.31;;;0.12;78.91
6096;BME280;25081;42.698;23.298;2023-01-31T06:22:18;95018.95;;;0.24;79.01
6096;BME280;25081;42.698;23.298;2023-01-31T06:24:28;95032.89;;;0.33;78.97
6096;BME280;25081;42.698;23.298;2023-01-31T06:26:39;95032.73;;;0.38;78.53
6096;BME280;25081;42.698;23.298;2023-01-31T06:28:49;95034.70;;;0.32;78.66
6096;BME280;25081;42.698;23.298;2023-01-31T06:30:59;95034.38;;;0.31;79.03
6096;BME280;25081;42.698;23.298;2023-01-31T06:33:10;95021.94;;;0.41;78.96
6096;BME280;25081;42.698;23.298;2023-01-31T06:35:20;95020.30;;;0.40;78.94
6096;BME280;25081;42.698;23.298;2023-01-31T06:37:31;95027.66;;;0.45;78.67
6096;BME280;25081;42.698;23.298;2023-01-31T06:39:41;95023.55;;;0.38;79.06
6096;BME280;25081;42.698;23.298;2023-01-31T06:41:52;95025.05;;;0.45;79.04
6096;BME280;25081;42.698;23.298;2023-01-31T06:44:02;95020.77;;;0.48;78.56
6096;BME280;25081;42.698;23.298;2023-01-31T06:46:13;95023.09;;;0.51;78.66
6096;BME280;25081;42.698;23.298;2023-01-31T06:48:23;95028.02;;;0.58;78.61
6096;BME280;25081;42.698;23.298;2023-01-31T06:50:34;95028.67;;;0.60;78.50
6096;BME280;25081;42.698;23.298;2023-01-31T06:52:44;95032.75;;;0.67;78.61
6096;BME280;25081;42.698;23.298;2023-01-31T06:54:55;95033.09;;;0.76;78.02
6096;BME280;25081;42.698;23.298;2023-01-31T06:57:05;95026.50;;;2.69;94.85
6096;BME280;25081;42.698;23.298;2023-01-31T06:59:16;95022.98;;;5.39;86.47
6096;BME280;25081;42.698;23.298;2023-01-31T07:01:26;95019.26;;;6.07;78.74
6096;BME280;25081;42.698;23.298;2023-01-31T07:03:37;95017.04;;;6.35;70.35
6096;BME280;25081;42.698;23.298;2023-01-31T07:05:48;95018.94;;;6.47;66.92
6096;BME280;25081;42.698;23.298;2023-01-31T07:07:58;95008.05;;;7.10;63.02
6096;BME280;25081;42.698;23.298;2023-01-31T07:10:11;95017.59;;;7.84;60.16
6096;BME280;25081;42.698;23.298;2023-01-31T07:12:21;95024.23;;;7.04;54.70
6096;BME280;25081;42.698;23.298;2023-01-31T07:14:32;95031.30;;;4.76;60.29
6096;BME280;25081;42.698;23.298;2023-01-31T07:16:42;95029.88;;;3.53;64.47
6096;BME280;25081;42.698;23.298;2023-01-31T07:18:53;95040.09;;;2.81;67.53
6096;BME280;25081;42.698;23.298;2023-01-31T07:21:05;95047.55;;;2.46;68.67
6096;BME280;25081;42.698;23.298;2023-01-31T07:23:15;95046.13;;;2.00;70.55
6096;BME280;25081;42.698;23.298;2023-01-31T07:25:26;95050.70;;;1.67;71.74
6096;BME280;25081;42.698;23.298;2023-01-31T07:27:36;95048.61;;;1.55;72.89
6096;BME280;25081;42.698;23.298;2023-01-31T07:29:47;94899.34;;;0.51;73.63
6096;BME280;25081;42.698;23.298;2023-01-31T07:31:57;95048.14;;;1.39;74.19
6096;BME280;25081;42.698;23.298;2023-01-31T07:34:08;95038.31;;;1.29;74.83
6096;BME280;25081;42.698;23.298;2023-01-31T07:36:19;95045.55;;;1.27;75.57
6096;BME280;25081;42.698;23.298;2023-01-31T07:38:29;95055.38;;;1.21;76.08
6096;BME280;25081;42.698;23.298;2023-01-31T07:40:39;95046.98;;;1.33;76.25
6096;BME280;25081;42.698;23.298;2023-01-31T07:42:50;95049.12;;;1.34;76.05
6096;BME280;25081;42.698;23.298;2023-01-31T07:45:00;95052.09;;;1.31;76.02
6096;BME280;25081;42.698;23.298;2023-01-31T07:47:11;95055.19;;;1.34;75.96
6096;BME280;25081;42.698;23.298;2023-01-31T07:49:22;95055.17;;;1.51;75.96
6096;BME280;25081;42.698;23.298;2023-01-31T07:51:32;95055.19;;;1.47;75.79
6096;BME280;25081;42.698;23.298;2023-01-31T07:53:43;95042.38;;;1.48;75.58
6096;BME280;25081;42.698;23.298;2023-01-31T07:55:54;95050.38;;;1.66;75.60
6096;BME280;25081;42.698;23.298;2023-01-31T07:58:04;95047.08;;;1.68;75.33
6096;BME280;25081;42.698;23.298;2023-01-31T08:00:16;95043.84;;;1.50;75.80
6096;BME280;25081;42.698;23.298;2023-01-31T08:02:44;95046.32;;;1.48;75.94
6096;BME280;25081;42.698;23.298;2023-01-31T08:05:12;95062.75;;;1.46;76.46
6096;BME280;25081;42.698;23.298;2023-01-31T08:07:23;95061.26;;;1.47;76.25
6096;BME280;25081;42.698;23.298;2023-01-31T08:09:34;95061.88;;;1.53;76.49
6096;BME280;25081;42.698;23.298;2023-01-31T08:11:44;95052.83;;;1.64;76.33
6096;BME280;25081;42.698;23.298;2023-01-31T08:13:55;95048.27;;;1.58;76.87
6096;BME280;25081;42.698;23.298;2023-01-31T08:16:08;95059.12;;;1.98;75.86
6096;BME280;25081;42.698;23.298;2023-01-31T08:18:19;95053.77;;;2.18;74.75
6096;BME280;25081;42.698;23.298;2023-01-31T08:20:29;95055.30;;;2.40;74.47
6096;BME280;25081;42.698;23.298;2023-01-31T08:22:40;95045.27;;;2.89;72.51
6096;BME280;25081;42.698;23.298;2023-01-31T08:24:51;95044.81;;;4.41;68.41
6096;BME280;25081;42.698;23.298;2023-01-31T08:27:02;95029.63;;;6.94;60.11
6096;BME280;25081;42.698;23.298;2023-01-31T08:29:12;95021.27;;;8.54;54.25
6096;BME280;25081;42.698;23.298;2023-01-31T08:31:23;95014.66;;;9.58;51.04
6096;BME280;25081;42.698;23.298;2023-01-31T08:33:34;95019.56;;;9.20;49.99
6096;BME280;25081;42.698;23.298;2023-01-31T08:35:45;95025.69;;;9.05;52.38
6096;BME280;25081;42.698;23.298;2023-01-31T08:37:55;95010.72;;;10.03;48.16
6096;BME280;25081;42.698;23.298;2023-01-31T08:40:08;95016.64;;;9.12;50.10
6096;BME280;25081;42.698;23.298;2023-01-31T08:42:19;95017.14;;;8.29;51.38
6096;BME280;25081;42.698;23.298;2023-01-31T08:44:30;95020.27;;;6.98;55.11
6096;BME280;25081;42.698;23.298;2023-01-31T08:46:41;95026.45;;;6.81;55.69
6096;BME280;25081;42.698;23.298;2023-01-31T08:48:51;95032.77;;;6.80;56.67
6096;BME280;25081;42.698;23.298;2023-01-31T08:51:03;95025.76;;;8.76;51.15
6096;BME280;25081;42.698;23.298;2023-01-31T08:53:13;95031.29;;;8.16;52.71
6096;BME280;25081;42.698;23.298;2023-01-31T08:55:24;95022.11;;;10.26;48.54
6096;BME280;25081;42.698;23.298;2023-01-31T08:57:34;95007.92;;;12.25;43.59
6096;BME280;25081;42.698;23.298;2023-01-31T08:59:45;95007.38;;;13.49;41.33
6096;BME280;25081;42.698;23.298;2023-01-31T09:01:55;95007.02;;;12.57;40.27
6096;BME280;25081;42.698;23.298;2023-01-31T09:04:06;95003.25;;;13.41;40.24
6096;BME280;25081;42.698;23.298;2023-01-31T09:06:18;95002.98;;;14.71;37.66
6096;BME280;25081;42.698;23.298;2023-01-31T09:08:28;95007.78;;;14.91;37.91
6096;BME280;25081;42.698;23.298;2023-01-31T09:10:39;95003.29;;;14.96;36.42
6096;BME280;25081;42.698;23.298;2023-01-31T09:12:50;95008.03;;;14.89;36.53
6096;BME280;25081;42.698;23.298;2023-01-31T09:15:01;94980.72;;;14.94;35.68
6096;BME280;25081;42.698;23.298;2023-01-31T09:17:12;94980.72;;;12.02;39.54
6096;BME280;25081;42.698;23.298;2023-01-31T09:19:22;95015.04;;;11.96;41.40
6096;BME280;25081;42.698;23.298;2023-01-31T09:21:33;95003.48;;;12.43;40.02
6096;BME280;25081;42.698;23.298;2023-01-31T09:23:44;95001.81;;;13.87;37.65
6096;BME280;25081;42.698;23.298;2023-01-31T09:25:55;95000.02;;;13.25;39.04
6096;BME280;25081;42.698;23.298;2023-01-31T09:28:05;95001.36;;;11.81;40.43
6096;BME280;25081;42.698;23.298;2023-01-31T09:30:16;94999.98;;;13.70;41.26
6096;BME280;25081;42.698;23.298;2023-01-31T09:32:27;94991.49;;;13.95;39.31
6096;BME280;25081;42.698;23.298;2023-01-31T09:34:37;94994.62;;;12.54;40.34
6096;BME280;25081;42.698;23.298;2023-01-31T09:36:48;94992.44;;;13.36;39.10
6096;BME280;25081;42.698;23.298;2023-01-31T09:38:58;94991.95;;;13.23;38.15
6096;BME280;25081;42.698;23.298;2023-01-31T09:41:14;94985.20;;;12.37;40.05
6096;BME280;25081;42.698;23.298;2023-01-31T09:43:25;94985.05;;;12.44;40.63
6096;BME280;25081;42.698;23.298;2023-01-31T09:45:35;94982.77;;;11.98;41.31
6096;BME280;25081;42.698;23.298;2023-01-31T09:50:11;94978.63;;;12.04;40.83
6096;BME280;25081;42.698;23.298;2023-01-31T09:52:19;94979.98;;;11.93;41.08
6096;BME280;25081;42.698;23.298;2023-01-31T09:54:31;94960.92;;;12.96;40.53
6096;BME280;25081;42.698;23.298;2023-01-31T09:56:41;94962.94;;;13.67;37.97
6096;BME280;25081;42.698;23.298;2023-01-31T09:58:55;94958.25;;;14.54;35.84
6096;BME280;25081;42.698;23.298;2023-01-31T10:01:10;94966.86;;;13.79;37.24
6096;BME280;25081;42.698;23.298;2023-01-31T10:03:26;94970.47;;;13.20;38.02
6096;BME280;25081;42.698;23.298;2023-01-31T10:05:40;94966.45;;;11.97;40.65
6096;BME280;25081;42.698;23.298;2023-01-31T10:07:53;94959.65;;;11.68;41.86
6096;BME280;25081;42.698;23.298;2023-01-31T10:10:07;94975.34;;;11.88;41.57
6096;BME280;25081;42.698;23.298;2023-01-31T10:12:16;94953.28;;;11.25;43.19
6096;BME280;25081;42.698;23.298;2023-01-31T10:14:30;94958.08;;;9.96;44.39
6096;BME280;25081;42.698;23.298;2023-01-31T10:16:40;94962.94;;;9.90;45.38
6096;BME280;25081;42.698;23.298;2023-01-31T10:18:51;94963.96;;;9.71;44.97
6096;BME280;25081;42.698;23.298;2023-01-31T10:21:03;94950.20;;;9.56;46.71
6096;BME280;25081;42.698;23.298;2023-01-31T10:23:14;94956.56;;;10.55;44.10
6096;BME280;25081;42.698;23.298;2023-01-31T10:25:25;94947.19;;;10.74;43.75
6096;BME280;25081;42.698;23.298;2023-01-31T10:27:39;94954.52;;;11.32;43.23
6096;BME280;25081;42.698;23.298;2023-01-31T10:29:51;94941.02;;;12.75;39.65
6096;BME280;25081;42.698;23.298;2023-01-31T10:32:01;94944.64;;;11.67;41.90
6096;BME280;25081;42.698;23.298;2023-01-31T10:34:13;94947.94;;;12.59;41.82
6096;BME280;25081;42.698;23.298;2023-01-31T10:36:25;94942.34;;;11.94;41.31
6096;BME280;25081;42.698;23.298;2023-01-31T10:38:36;94940.13;;;11.44;41.34
6096;BME280;25081;42.698;23.298;2023-01-31T10:40:47;94936.77;;;9.96;44.59
6096;BME280;25081;42.698;23.298;2023-01-31T10:42:59;94945.30;;;8.17;48.64
6096;BME280;25081;42.698;23.298;2023-01-31T10:45:12;94950.02;;;6.84;52.16
6096;BME280;25081;42.698;23.298;2023-01-31T10:47:31;94947.48;;;7.13;52.85
6096;BME280;25081;42.698;23.298;2023-01-31T10:49:32;94940.39;;;7.63;51.86
6096;BME280;25081;42.698;23.298;2023-01-31T10:51:50;94952.27;;;7.14;52.45
6096;BME280;25081;42.698;23.298;2023-01-31T10:54:08;94949.06;;;6.11;55.33
6096;BME280;25081;42.698;23.298;2023-01-31T10:56:23;94962.16;;;7.03;58.42
6096;BME280;25081;42.698;23.298;2023-01-31T10:58:37;94959.93;;;7.26;52.83
6096;BME280;25081;42.698;23.298;2023-01-31T11:00:47;94958.40;;;7.34;53.13
6096;BME280;25081;42.698;23.298;2023-01-31T11:02:58;94959.51;;;7.29;52.59
6096;BME280;25081;42.698;23.298;2023-01-31T11:05:15;94972.98;;;6.14;55.68
6096;BME280;25081;42.698;23.298;2023-01-31T11:07:27;94979.04;;;4.50;59.91
6096;BME280;25081;42.698;23.298;2023-01-31T11:09:36;94969.48;;;4.28;62.30
6096;BME280;25081;42.698;23.298;2023-01-31T11:11:54;94971.63;;;4.39;62.73
6096;BME280;25081;42.698;23.298;2023-01-31T11:14:05;94958.42;;;4.93;61.63
6096;BME280;25081;42.698;23.298;2023-01-31T11:16:15;94956.05;;;5.50;61.27
6096;BME280;25081;42.698;23.298;2023-01-31T11:18:28;94963.83;;;5.58;59.95
6096;BME280;25081;42.698;23.298;2023-01-31T11:20:43;94968.02;;;5.28;60.27
6096;BME280;25081;42.698;23.298;2023-01-31T11:22:49;94971.49;;;4.79;61.59
6096;BME280;25081;42.698;23.298;2023-01-31T11:25:00;94970.09;;;4.19;63.89
6096;BME280;25081;42.698;23.298;2023-01-31T11:27:12;94975.59;;;4.14;64.21
6096;BME280;25081;42.698;23.298;2023-01-31T11:29:23;94975.17;;;3.95;64.87
6096;BME280;25081;42.698;23.298;2023-01-31T11:31:32;94983.38;;;3.86;65.34
6096;BME280;25081;42.698;23.298;2023-01-31T11:33:43;94980.32;;;3.93;65.36
6096;BME280;25081;42.698;23.298;2023-01-31T11:35:54;94981.30;;;3.96;65.43
6096;BME280;25081;42.698;23.298;2023-01-31T11:38:18;94987.25;;;4.05;64.91
6096;BME280;25081;42.698;23.298;2023-01-31T11:40:30;94982.84;;;3.76;65.97
6096;BME280;25081;42.698;23.298;2023-01-31T11:42:53;94980.95;;;3.69;66.86
6096;BME280;25081;42.698;23.298;2023-01-31T11:45:11;94981.48;;;3.65;67.37
6096;BME280;25081;42.698;23.298;2023-01-31T11:47:14;94984.63;;;3.64;68.03